Nanticoke — VCQL — position and weather

sailwx.info

Track history (hours):
 
Tides and Currents Weather Stations Pressure Air Temp Water Temp Dewpoint Dewpoint Depression Visibility Wind Speed Wind Dir Waves Ship Positions

Nanticoke

Last reported at 2014-Aug-21 17:24 UTC. Time now 2014-Aug-22 23:40 UTC.
Position N 49°22' W 066°06'.

Length 222 m; draft 7.4 m.

Type: Cargo ship. MMSI: 316043000.

Date/timePositionNaut miles runAvg speedWind from/ knotsBaromVisibWave heightAir tempDewpointWater temp
2014-Aug-21 17:24N 49°22' W 066°06'1112.8
2014-Aug-21 16:33N 49°21' W 066°22'1312.9
2014-Aug-21 15:33N 49°17' W 066°41'1212.4
2014-Aug-21 14:33N 49°13' W 066°59'1211.8
2014-Aug-21 13:34N 49°09' W 067°16'1111.1
2014-Aug-21 12:33N 49°04' W 067°31'1212.1
2014-Aug-21 11:33N 48°58' W 067°47'1212.4
2014-Aug-21 10:33N 48°52' W 068°04'1212.4
2014-Aug-21 09:33N 48°45' W 068°19'1413.8
2014-Aug-21 08:33N 48°37' W 068°36'1413.5
2014-Aug-21 07:33N 48°29' W 068°53'1313.2
2014-Aug-21 06:33N 48°23' W 069°11'1211.5
2014-Aug-21 05:33N 48°17' W 069°26'1212.1
2014-Aug-21 04:33N 48°07' W 069°34'1211.5
2014-Aug-21 03:33N 47°57' W 069°42'1212.3
2014-Aug-21 02:33N 47°46' W 069°52'1312.9
2014-Aug-21 01:33N 47°36' W 070°04'1414.3
2014-Aug-21 00:33N 47°27' W 070°20'1514.7
2014-Aug-20 23:34N 47°15' W 070°33'1515.3
2014-Aug-20 22:34N 47°02' W 070°46'1414.0
2014-Aug-20 21:33N 46°51' W 070°59'1010.3
2014-Aug-20 20:33N 46°47' W 071°13'10 9.8
2014-Aug-20 19:33N 46°43' W 071°26'1010.2
2014-Aug-20 18:33N 46°39' W 071°40'1111.3
2014-Aug-20 17:34N 46°38' W 071°56'1414.2
2014-Aug-20 16:32N 46°30' W 072°14'1212.6
2014-Aug-20 15:33N 46°23' W 072°28'1211.7
2014-Aug-20 14:33N 46°16' W 072°42'1312.7
2014-Aug-20 13:33N 46°09' W 072°57'1212.2
2014-Aug-20 12:33N 46°01' W 073°10'1313.2
2014-Aug-20 11:33N 45°49' W 073°18'1313.4
2014-Aug-20 10:33N 45°38' W 073°29'1 1.3
2014-Aug-20 09:33N 45°37' W 073°30'0 0.0
2014-Aug-20 08:33N 45°37' W 073°30'0 0.0
2014-Aug-20 07:33N 45°37' W 073°30'0 0.0
2014-Aug-20 06:33N 45°37' W 073°30'0 0.0
2014-Aug-20 05:33N 45°37' W 073°30'0 0.0
2014-Aug-20 04:33N 45°37' W 073°30'1 1.3
2014-Aug-20 03:33N 45°38' W 073°29'9 8.6
2014-Aug-20 02:33N 45°46' W 073°23'9 9.3
2014-Aug-20 01:33N 45°53' W 073°15'9 8.9
2014-Aug-20 00:33N 46°01' W 073°10'9 8.7
2014-Aug-19 23:33N 46°06' W 072°60'9 9.1
2014-Aug-19 22:31N 46°12' W 072°50'27 8.8
2014-Aug-19 19:24N 46°27' W 072°16'7 8.5
2014-Aug-19 18:33N 46°32' W 072°10'7 6.7
2014-Aug-19 17:33N 46°35' W 072°01'7 7.0
2014-Aug-19 16:33N 46°40' W 071°54'9 8.5
2014-Aug-19 15:33N 46°39' W 071°41'9 9.1
2014-Aug-19 14:33N 46°42' W 071°29'9 8.6
2014-Aug-19 13:33N 46°45' W 071°17'8 7.7
2014-Aug-19 12:33N 46°51' W 071°10'8 8.0
2014-Aug-19 11:33N 46°52' W 070°58'9 9.4
2014-Aug-19 10:33N 46°59' W 070°49'9 9.2
2014-Aug-19 09:33N 47°07' W 070°42'9 9.3
2014-Aug-19 08:33N 47°15' W 070°34'9 9.0
2014-Aug-19 07:33N 47°23' W 070°28'9 8.8
2014-Aug-19 06:33N 47°27' W 070°18'1010.3
2014-Aug-19 05:33N 47°35' W 070°07'1111.1
2014-Aug-19 04:33N 47°43' W 069°56'1111.5
2014-Aug-19 03:33N 47°53' W 069°48'1313.0
2014-Aug-19 02:33N 48°04' W 069°37'1111.1
2014-Aug-19 01:33N 48°14' W 069°29'1211.5
2014-Aug-19 00:28N 48°23' W 069°16'1313.5
2014-Aug-18 23:29N 48°31' W 069°00'1213.3
2014-Aug-18 22:33N 48°38' W 068°45'1212.3
2014-Aug-18 21:33N 48°44' W 068°29'1313.1
2014-Aug-18 20:33N 48°52' W 068°13'1413.6
2014-Aug-18 19:33N 48°59' W 067°55'1413.8
2014-Aug-18 18:33N 49°07' W 067°38'1313.5
2014-Aug-18 17:33N 49°14' W 067°20'1313.1
2014-Aug-18 16:33N 49°17' W 067°00'1212.3
2014-Aug-18 15:33N 49°20' W 066°42'1212.3
2014-Aug-18 14:33N 49°22' W 066°24'1212.2
2014-Aug-18 13:33N 49°25' W 066°05'  
2014-Aug-15 01:31N 47°08' W 052°27'1313.1
2014-Aug-15 00:29N 47°19' W 052°14'10 9.7
2014-Aug-14 23:25N 47°29' W 052°17'1112.3
2014-Aug-14 22:30N 47°37' W 052°28'22 9.8
2014-Aug-14 20:18N 47°47' W 052°57'912.2
2014-Aug-14 19:33N 47°40' W 053°07'7 1.0
2014-Aug-14 12:14N 47°36' W 053°15'4 5.3
2014-Aug-14 11:31N 47°38' W 053°10'7 6.5
2014-Aug-14 10:28N 47°42' W 053°03'16 5.3
2014-Aug-14 07:33N 47°45' W 052°40'7 6.8
2014-Aug-14 06:33N 47°39' W 052°35'7 6.9
2014-Aug-14 05:32N 47°32' W 052°33'8 7.5
2014-Aug-14 04:29N 47°24' W 052°30'8 8.1
2014-Aug-14 03:32N 47°17' W 052°29'  
Track history (hours):
 
Tides and Currents Weather Stations Pressure Air Temp Water Temp Dewpoint Dewpoint Depression Visibility Wind Speed Wind Dir Waves Ship Positions

Nanticoke

Last reported at 2014-Aug-21 17:24 UTC. Time now 2014-Aug-22 23:40 UTC.
Position N 49°22' W 066°06'.

Length 222 m; draft 7.4 m.

Type: Cargo ship. MMSI: 316043000.

Date/timePositionNaut miles runAvg speedWind from/ knotsBaromVisibWave heightAir tempDewpointWater temp
2014-Aug-21 17:24N 49°22' W 066°06'1112.8
2014-Aug-21 16:33N 49°21' W 066°22'1312.9
2014-Aug-21 15:33N 49°17' W 066°41'1212.4
2014-Aug-21 14:33N 49°13' W 066°59'1211.8
2014-Aug-21 13:34N 49°09' W 067°16'1111.1
2014-Aug-21 12:33N 49°04' W 067°31'1212.1
2014-Aug-21 11:33N 48°58' W 067°47'1212.4
2014-Aug-21 10:33N 48°52' W 068°04'1212.4
2014-Aug-21 09:33N 48°45' W 068°19'1413.8
2014-Aug-21 08:33N 48°37' W 068°36'1413.5
2014-Aug-21 07:33N 48°29' W 068°53'1313.2
2014-Aug-21 06:33N 48°23' W 069°11'1211.5
2014-Aug-21 05:33N 48°17' W 069°26'1212.1
2014-Aug-21 04:33N 48°07' W 069°34'1211.5
2014-Aug-21 03:33N 47°57' W 069°42'1212.3
2014-Aug-21 02:33N 47°46' W 069°52'1312.9
2014-Aug-21 01:33N 47°36' W 070°04'1414.3
2014-Aug-21 00:33N 47°27' W 070°20'1514.7
2014-Aug-20 23:34N 47°15' W 070°33'1515.3
2014-Aug-20 22:34N 47°02' W 070°46'1414.0
2014-Aug-20 21:33N 46°51' W 070°59'1010.3
2014-Aug-20 20:33N 46°47' W 071°13'10 9.8
2014-Aug-20 19:33N 46°43' W 071°26'1010.2
2014-Aug-20 18:33N 46°39' W 071°40'1111.3
2014-Aug-20 17:34N 46°38' W 071°56'1414.2
2014-Aug-20 16:32N 46°30' W 072°14'1212.6
2014-Aug-20 15:33N 46°23' W 072°28'1211.7
2014-Aug-20 14:33N 46°16' W 072°42'1312.7
2014-Aug-20 13:33N 46°09' W 072°57'1212.2
2014-Aug-20 12:33N 46°01' W 073°10'1313.2
2014-Aug-20 11:33N 45°49' W 073°18'1313.4
2014-Aug-20 10:33N 45°38' W 073°29'1 1.3
2014-Aug-20 09:33N 45°37' W 073°30'0 0.0
2014-Aug-20 08:33N 45°37' W 073°30'0 0.0
2014-Aug-20 07:33N 45°37' W 073°30'0 0.0
2014-Aug-20 06:33N 45°37' W 073°30'0 0.0
2014-Aug-20 05:33N 45°37' W 073°30'0 0.0
2014-Aug-20 04:33N 45°37' W 073°30'1 1.3
2014-Aug-20 03:33N 45°38' W 073°29'9 8.6
2014-Aug-20 02:33N 45°46' W 073°23'9 9.3
2014-Aug-20 01:33N 45°53' W 073°15'9 8.9
2014-Aug-20 00:33N 46°01' W 073°10'9 8.7
2014-Aug-19 23:33N 46°06' W 072°60'9 9.1
2014-Aug-19 22:31N 46°12' W 072°50'27 8.8
2014-Aug-19 19:24N 46°27' W 072°16'7 8.5
2014-Aug-19 18:33N 46°32' W 072°10'7 6.7
2014-Aug-19 17:33N 46°35' W 072°01'7 7.0
2014-Aug-19 16:33N 46°40' W 071°54'9 8.5
2014-Aug-19 15:33N 46°39' W 071°41'9 9.1
2014-Aug-19 14:33N 46°42' W 071°29'9 8.6
2014-Aug-19 13:33N 46°45' W 071°17'8 7.7
2014-Aug-19 12:33N 46°51' W 071°10'8 8.0
2014-Aug-19 11:33N 46°52' W 070°58'9 9.4
2014-Aug-19 10:33N 46°59' W 070°49'9 9.2
2014-Aug-19 09:33N 47°07' W 070°42'9 9.3
2014-Aug-19 08:33N 47°15' W 070°34'9 9.0
2014-Aug-19 07:33N 47°23' W 070°28'9 8.8
2014-Aug-19 06:33N 47°27' W 070°18'1010.3
2014-Aug-19 05:33N 47°35' W 070°07'1111.1
2014-Aug-19 04:33N 47°43' W 069°56'1111.5
2014-Aug-19 03:33N 47°53' W 069°48'1313.0
2014-Aug-19 02:33N 48°04' W 069°37'1111.1
2014-Aug-19 01:33N 48°14' W 069°29'1211.5
2014-Aug-19 00:28N 48°23' W 069°16'1313.5
2014-Aug-18 23:29N 48°31' W 069°00'1213.3
2014-Aug-18 22:33N 48°38' W 068°45'1212.3
2014-Aug-18 21:33N 48°44' W 068°29'1313.1
2014-Aug-18 20:33N 48°52' W 068°13'1413.6
2014-Aug-18 19:33N 48°59' W 067°55'1413.8
2014-Aug-18 18:33N 49°07' W 067°38'1313.5
2014-Aug-18 17:33N 49°14' W 067°20'1313.1
2014-Aug-18 16:33N 49°17' W 067°00'1212.3
2014-Aug-18 15:33N 49°20' W 066°42'1212.3
2014-Aug-18 14:33N 49°22' W 066°24'1212.2
2014-Aug-18 13:33N 49°25' W 066°05'  
2014-Aug-15 01:31N 47°08' W 052°27'1313.1
2014-Aug-15 00:29N 47°19' W 052°14'10 9.7
2014-Aug-14 23:25N 47°29' W 052°17'1112.3
2014-Aug-14 22:30N 47°37' W 052°28'22 9.8
2014-Aug-14 20:18N 47°47' W 052°57'912.2
2014-Aug-14 19:33N 47°40' W 053°07'7 1.0
2014-Aug-14 12:14N 47°36' W 053°15'4 5.3
2014-Aug-14 11:31N 47°38' W 053°10'7 6.5
2014-Aug-14 10:28N 47°42' W 053°03'16 5.3
2014-Aug-14 07:33N 47°45' W 052°40'7 6.8
2014-Aug-14 06:33N 47°39' W 052°35'7 6.9
2014-Aug-14 05:32N 47°32' W 052°33'8 7.5
2014-Aug-14 04:29N 47°24' W 052°30'8 8.1
2014-Aug-14 03:32N 47°17' W 052°29'  

Dump ship's entire track history